sensor_id;sensor_type;location;lat;lon;timestamp;P1;durP1;ratioP1;P2;durP2;ratioP2
3052;SDS011;1536;51.098;6.414;2023-06-22T00:01:20;7.03;;;6.03;;
3052;SDS011;1536;51.098;6.414;2023-06-22T00:03:48;7.33;;;5.63;;
3052;SDS011;1536;51.098;6.414;2023-06-22T00:06:15;6.33;;;5.73;;
3052;SDS011;1536;51.098;6.414;2023-06-22T00:08:42;6.30;;;5.70;;
3052;SDS011;1536;51.098;6.414;2023-06-22T00:11:09;6.60;;;5.93;;
3052;SDS011;1536;51.098;6.414;2023-06-22T00:13:36;9.50;;;7.00;;
3052;SDS011;1536;51.098;6.414;2023-06-22T00:16:03;8.47;;;6.37;;
3052;SDS011;1536;51.098;6.414;2023-06-22T00:18:30;7.57;;;6.87;;
3052;SDS011;1536;51.098;6.414;2023-06-22T00:20:59;8.37;;;7.47;;
3052;SDS011;1536;51.098;6.414;2023-06-22T00:23:26;9.97;;;6.90;;
3052;SDS011;1536;51.098;6.414;2023-06-22T00:25:59;8.10;;;6.83;;
3052;SDS011;1536;51.098;6.414;2023-06-22T00:28:25;9.47;;;6.93;;
3052;SDS011;1536;51.098;6.414;2023-06-22T00:30:52;8.80;;;7.60;;
3052;SDS011;1536;51.098;6.414;2023-06-22T00:33:19;8.17;;;7.33;;
3052;SDS011;1536;51.098;6.414;2023-06-22T00:35:46;10.60;;;7.40;;
3052;SDS011;1536;51.098;6.414;2023-06-22T00:38:14;8.17;;;7.37;;
3052;SDS011;1536;51.098;6.414;2023-06-22T00:40:41;12.07;;;8.53;;
3052;SDS011;1536;51.098;6.414;2023-06-22T00:43:07;10.73;;;8.67;;
3052;SDS011;1536;51.098;6.414;2023-06-22T00:45:34;7.67;;;6.97;;
3052;SDS011;1536;51.098;6.414;2023-06-22T00:48:01;10.13;;;7.77;;
3052;SDS011;1536;51.098;6.414;2023-06-22T00:50:29;8.07;;;7.27;;
3052;SDS011;1536;51.098;6.414;2023-06-22T00:53:00;8.30;;;7.50;;
3052;SDS011;1536;51.098;6.414;2023-06-22T00:55:34;7.30;;;6.57;;
3052;SDS011;1536;51.098;6.414;2023-06-22T00:58:03;10.87;;;8.60;;
3052;SDS011;1536;51.098;6.414;2023-06-22T01:00:33;10.03;;;7.13;;
3052;SDS011;1536;51.098;6.414;2023-06-22T01:03:01;9.73;;;7.67;;
3052;SDS011;1536;51.098;6.414;2023-06-22T01:05:28;9.70;;;8.70;;
3052;SDS011;1536;51.098;6.414;2023-06-22T01:08:00;8.73;;;7.87;;
3052;SDS011;1536;51.098;6.414;2023-06-22T01:10:43;10.33;;;8.97;;
3052;SDS011;1536;51.098;6.414;2023-06-22T01:13:16;12.33;;;8.87;;
3052;SDS011;1536;51.098;6.414;2023-06-22T01:15:51;12.60;;;8.70;;
3052;SDS011;1536;51.098;6.414;2023-06-22T01:18:23;8.70;;;7.80;;
3052;SDS011;1536;51.098;6.414;2023-06-22T01:20:53;14.23;;;8.63;;
3052;SDS011;1536;51.098;6.414;2023-06-22T01:23:26;13.30;;;9.00;;
3052;SDS011;1536;51.098;6.414;2023-06-22T01:26:02;12.40;;;8.77;;
3052;SDS011;1536;51.098;6.414;2023-06-22T01:28:45;12.07;;;9.10;;
3052;SDS011;1536;51.098;6.414;2023-06-22T01:31:13;13.57;;;8.43;;
3052;SDS011;1536;51.098;6.414;2023-06-22T01:33:43;10.10;;;8.47;;
3052;SDS011;1536;51.098;6.414;2023-06-22T01:36:11;11.43;;;8.97;;
3052;SDS011;1536;51.098;6.414;2023-06-22T01:38:40;10.60;;;9.50;;
3052;SDS011;1536;51.098;6.414;2023-06-22T01:41:09;9.50;;;8.50;;
3052;SDS011;1536;51.098;6.414;2023-06-22T01:43:37;11.57;;;8.20;;
3052;SDS011;1536;51.098;6.414;2023-06-22T01:46:06;12.77;;;8.50;;
3052;SDS011;1536;51.098;6.414;2023-06-22T01:48:34;10.00;;;8.67;;
3052;SDS011;1536;51.098;6.414;2023-06-22T01:51:00;9.67;;;8.50;;
3052;SDS011;1536;51.098;6.414;2023-06-22T01:53:29;10.23;;;7.53;;
3052;SDS011;1536;51.098;6.414;2023-06-22T01:55:56;14.00;;;8.80;;
3052;SDS011;1536;51.098;6.414;2023-06-22T01:58:23;15.67;;;9.10;;
3052;SDS011;1536;51.098;6.414;2023-06-22T02:00:55;9.27;;;8.37;;
3052;SDS011;1536;51.098;6.414;2023-06-22T02:03:29;15.50;;;8.57;;
3052;SDS011;1536;51.098;6.414;2023-06-22T02:05:58;10.00;;;9.00;;
3052;SDS011;1536;51.098;6.414;2023-06-22T02:08:30;10.73;;;8.70;;
3052;SDS011;1536;51.098;6.414;2023-06-22T02:11:01;10.43;;;9.33;;
3052;SDS011;1536;51.098;6.414;2023-06-22T02:13:29;12.47;;;9.10;;
3052;SDS011;1536;51.098;6.414;2023-06-22T02:15:58;14.33;;;9.30;;
3052;SDS011;1536;51.098;6.414;2023-06-22T02:18:27;10.17;;;8.50;;
3052;SDS011;1536;51.098;6.414;2023-06-22T02:20:54;13.03;;;9.17;;
3052;SDS011;1536;51.098;6.414;2023-06-22T02:23:22;10.47;;;9.47;;
3052;SDS011;1536;51.098;6.414;2023-06-22T02:25:49;14.03;;;9.13;;
3052;SDS011;1536;51.098;6.414;2023-06-22T02:28:15;11.33;;;9.43;;
3052;SDS011;1536;51.098;6.414;2023-06-22T02:30:42;12.80;;;9.37;;
3052;SDS011;1536;51.098;6.414;2023-06-22T02:33:09;10.80;;;9.23;;
3052;SDS011;1536;51.098;6.414;2023-06-22T02:35:38;10.47;;;9.30;;
3052;SDS011;1536;51.098;6.414;2023-06-22T02:38:05;11.07;;;9.77;;
3052;SDS011;1536;51.098;6.414;2023-06-22T02:40:33;12.07;;;10.40;;
3052;SDS011;1536;51.098;6.414;2023-06-22T02:42:59;15.97;;;9.60;;
3052;SDS011;1536;51.098;6.414;2023-06-22T02:45:27;10.50;;;9.20;;
3052;SDS011;1536;51.098;6.414;2023-06-22T02:47:54;11.70;;;9.40;;
3052;SDS011;1536;51.098;6.414;2023-06-22T02:50:21;14.40;;;10.70;;
3052;SDS011;1536;51.098;6.414;2023-06-22T02:52:49;9.60;;;8.60;;
3052;SDS011;1536;51.098;6.414;2023-06-22T02:55:16;12.50;;;9.83;;
3052;SDS011;1536;51.098;6.414;2023-06-22T02:57:43;10.43;;;9.37;;
3052;SDS011;1536;51.098;6.414;2023-06-22T03:00:12;12.67;;;8.80;;
3052;SDS011;1536;51.098;6.414;2023-06-22T03:02:42;10.03;;;9.03;;
3052;SDS011;1536;51.098;6.414;2023-06-22T03:05:09;10.97;;;9.73;;
3052;SDS011;1536;51.098;6.414;2023-06-22T03:07:38;12.83;;;9.87;;
3052;SDS011;1536;51.098;6.414;2023-06-22T03:10:07;13.60;;;10.10;;
3052;SDS011;1536;51.098;6.414;2023-06-22T03:12:35;12.40;;;9.43;;
3052;SDS011;1536;51.098;6.414;2023-06-22T03:15:02;11.63;;;10.43;;
3052;SDS011;1536;51.098;6.414;2023-06-22T03:17:30;14.77;;;9.30;;
3052;SDS011;1536;51.098;6.414;2023-06-22T03:19:56;12.20;;;9.57;;
3052;SDS011;1536;51.098;6.414;2023-06-22T03:22:23;11.33;;;10.20;;
3052;SDS011;1536;51.098;6.414;2023-06-22T03:24:50;12.93;;;10.13;;
3052;SDS011;1536;51.098;6.414;2023-06-22T03:27:18;12.07;;;10.77;;
3052;SDS011;1536;51.098;6.414;2023-06-22T03:29:45;12.60;;;10.73;;
3052;SDS011;1536;51.098;6.414;2023-06-22T03:32:11;14.17;;;10.90;;
3052;SDS011;1536;51.098;6.414;2023-06-22T03:34:38;13.60;;;11.70;;
3052;SDS011;1536;51.098;6.414;2023-06-22T03:37:05;13.10;;;11.00;;
3052;SDS011;1536;51.098;6.414;2023-06-22T03:39:32;13.03;;;11.63;;
3052;SDS011;1536;51.098;6.414;2023-06-22T03:41:58;10.97;;;9.83;;
3052;SDS011;1536;51.098;6.414;2023-06-22T03:44:27;15.10;;;10.70;;
3052;SDS011;1536;51.098;6.414;2023-06-22T03:46:53;11.73;;;10.43;;
3052;SDS011;1536;51.098;6.414;2023-06-22T03:49:20;12.17;;;10.97;;
3052;SDS011;1536;51.098;6.414;2023-06-22T03:51:47;16.60;;;11.90;;
3052;SDS011;1536;51.098;6.414;2023-06-22T03:54:13;12.40;;;10.30;;
3052;SDS011;1536;51.098;6.414;2023-06-22T03:56:40;12.57;;;11.30;;
3052;SDS011;1536;51.098;6.414;2023-06-22T03:59:08;13.27;;;11.30;;
3052;SDS011;1536;51.098;6.414;2023-06-22T04:01:39;14.77;;;11.37;;
3052;SDS011;1536;51.098;6.414;2023-06-22T04:04:06;16.87;;;12.57;;
3052;SDS011;1536;51.098;6.414;2023-06-22T04:06:32;13.13;;;11.70;;
3052;SDS011;1536;51.098;6.414;2023-06-22T04:08:59;13.50;;;12.10;;
3052;SDS011;1536;51.098;6.414;2023-06-22T04:11:26;12.40;;;11.07;;
3052;SDS011;1536;51.098;6.414;2023-06-22T04:13:53;11.50;;;10.30;;
3052;SDS011;1536;51.098;6.414;2023-06-22T04:16:20;11.50;;;9.97;;
3052;SDS011;1536;51.098;6.414;2023-06-22T04:18:48;12.13;;;10.83;;
3052;SDS011;1536;51.098;6.414;2023-06-22T04:21:15;18.70;;;11.53;;
3052;SDS011;1536;51.098;6.414;2023-06-22T04:23:42;12.60;;;10.53;;
3052;SDS011;1536;51.098;6.414;2023-06-22T04:26:09;11.97;;;10.33;;
3052;SDS011;1536;51.098;6.414;2023-06-22T04:28:35;13.13;;;9.93;;
3052;SDS011;1536;51.098;6.414;2023-06-22T04:31:02;14.67;;;10.83;;
3052;SDS011;1536;51.098;6.414;2023-06-22T04:33:29;14.93;;;10.87;;
3052;SDS011;1536;51.098;6.414;2023-06-22T04:35:58;12.50;;;10.60;;
3052;SDS011;1536;51.098;6.414;2023-06-22T04:38:26;13.20;;;11.90;;
3052;SDS011;1536;51.098;6.414;2023-06-22T04:40:53;14.60;;;11.40;;
3052;SDS011;1536;51.098;6.414;2023-06-22T04:43:20;13.73;;;11.70;;
3052;SDS011;1536;51.098;6.414;2023-06-22T04:45:46;12.47;;;11.17;;
3052;SDS011;1536;51.098;6.414;2023-06-22T04:48:17;13.60;;;12.00;;
3052;SDS011;1536;51.098;6.414;2023-06-22T04:50:44;13.33;;;11.17;;
3052;SDS011;1536;51.098;6.414;2023-06-22T04:53:12;16.57;;;12.30;;
3052;SDS011;1536;51.098;6.414;2023-06-22T04:55:39;12.10;;;10.70;;
3052;SDS011;1536;51.098;6.414;2023-06-22T04:58:06;14.83;;;11.20;;
3052;SDS011;1536;51.098;6.414;2023-06-22T05:00:33;14.70;;;10.70;;
3052;SDS011;1536;51.098;6.414;2023-06-22T05:03:01;13.67;;;12.33;;
3052;SDS011;1536;51.098;6.414;2023-06-22T05:05:28;15.07;;;11.47;;
3052;SDS011;1536;51.098;6.414;2023-06-22T05:07:56;15.00;;;10.10;;
3052;SDS011;1536;51.098;6.414;2023-06-22T05:10:26;13.80;;;10.80;;
3052;SDS011;1536;51.098;6.414;2023-06-22T05:12:53;13.37;;;10.60;;
3052;SDS011;1536;51.098;6.414;2023-06-22T05:15:20;10.37;;;9.10;;
3052;SDS011;1536;51.098;6.414;2023-06-22T05:17:48;13.33;;;10.60;;
3052;SDS011;1536;51.098;6.414;2023-06-22T05:20:14;14.93;;;11.00;;
3052;SDS011;1536;51.098;6.414;2023-06-22T05:22:43;15.17;;;10.30;;
3052;SDS011;1536;51.098;6.414;2023-06-22T05:25:10;17.83;;;10.90;;
3052;SDS011;1536;51.098;6.414;2023-06-22T05:27:39;12.33;;;10.70;;
3052;SDS011;1536;51.098;6.414;2023-06-22T05:30:06;14.27;;;9.63;;
3052;SDS011;1536;51.098;6.414;2023-06-22T05:32:34;13.40;;;10.43;;
3052;SDS011;1536;51.098;6.414;2023-06-22T05:35:01;13.33;;;10.40;;
3052;SDS011;1536;51.098;6.414;2023-06-22T05:37:28;14.27;;;10.67;;
3052;SDS011;1536;51.098;6.414;2023-06-22T05:39:55;11.03;;;9.93;;
3052;SDS011;1536;51.098;6.414;2023-06-22T05:42:23;12.37;;;10.50;;
3052;SDS011;1536;51.098;6.414;2023-06-22T05:44:52;13.57;;;10.80;;
3052;SDS011;1536;51.098;6.414;2023-06-22T05:47:19;13.67;;;12.03;;
3052;SDS011;1536;51.098;6.414;2023-06-22T05:49:46;13.67;;;12.20;;
3052;SDS011;1536;51.098;6.414;2023-06-22T05:52:13;15.07;;;11.27;;
3052;SDS011;1536;51.098;6.414;2023-06-22T05:54:39;15.10;;;11.97;;
3052;SDS011;1536;51.098;6.414;2023-06-22T05:57:06;16.43;;;12.43;;
3052;SDS011;1536;51.098;6.414;2023-06-22T05:59:33;15.23;;;10.60;;
3052;SDS011;1536;51.098;6.414;2023-06-22T06:02:01;13.23;;;11.90;;
3052;SDS011;1536;51.098;6.414;2023-06-22T06:04:28;15.80;;;12.17;;
3052;SDS011;1536;51.098;6.414;2023-06-22T06:06:55;17.83;;;12.10;;
3052;SDS011;1536;51.098;6.414;2023-06-22T06:09:22;16.97;;;12.00;;
3052;SDS011;1536;51.098;6.414;2023-06-22T06:11:48;13.03;;;11.63;;
3052;SDS011;1536;51.098;6.414;2023-06-22T06:14:15;17.40;;;12.60;;
3052;SDS011;1536;51.098;6.414;2023-06-22T06:16:42;17.40;;;13.60;;
3052;SDS011;1536;51.098;6.414;2023-06-22T06:19:10;15.73;;;11.97;;
3052;SDS011;1536;51.098;6.414;2023-06-22T06:21:37;15.60;;;12.50;;
3052;SDS011;1536;51.098;6.414;2023-06-22T06:24:04;14.80;;;11.67;;
3052;SDS011;1536;51.098;6.414;2023-06-22T06:26:31;16.40;;;12.60;;
3052;SDS011;1536;51.098;6.414;2023-06-22T06:28:59;16.10;;;12.63;;
3052;SDS011;1536;51.098;6.414;2023-06-22T06:31:27;19.80;;;13.07;;
3052;SDS011;1536;51.098;6.414;2023-06-22T06:33:54;16.97;;;13.07;;
3052;SDS011;1536;51.098;6.414;2023-06-22T06:36:22;16.80;;;11.40;;
3052;SDS011;1536;51.098;6.414;2023-06-22T06:38:49;17.10;;;12.10;;
3052;SDS011;1536;51.098;6.414;2023-06-22T06:41:16;18.13;;;12.60;;
3052;SDS011;1536;51.098;6.414;2023-06-22T06:43:43;16.77;;;12.60;;
3052;SDS011;1536;51.098;6.414;2023-06-22T06:46:09;16.40;;;13.90;;
3052;SDS011;1536;51.098;6.414;2023-06-22T06:48:36;14.20;;;12.43;;
3052;SDS011;1536;51.098;6.414;2023-06-22T06:51:03;15.90;;;13.40;;
3052;SDS011;1536;51.098;6.414;2023-06-22T06:53:31;16.07;;;13.60;;
3052;SDS011;1536;51.098;6.414;2023-06-22T06:55:58;16.63;;;13.47;;
3052;SDS011;1536;51.098;6.414;2023-06-22T06:58:25;21.20;;;13.97;;
3052;SDS011;1536;51.098;6.414;2023-06-22T07:00:51;13.20;;;11.90;;
3052;SDS011;1536;51.098;6.414;2023-06-22T07:03:18;16.27;;;13.60;;
3052;SDS011;1536;51.098;6.414;2023-06-22T07:05:45;15.27;;;13.77;;
3052;SDS011;1536;51.098;6.414;2023-06-22T07:08:11;18.27;;;14.07;;
3052;SDS011;1536;51.098;6.414;2023-06-22T07:10:39;15.37;;;13.70;;
3052;SDS011;1536;51.098;6.414;2023-06-22T07:13:06;15.40;;;13.73;;
3052;SDS011;1536;51.098;6.414;2023-06-22T07:15:33;19.50;;;13.90;;
3052;SDS011;1536;51.098;6.414;2023-06-22T07:18:00;16.20;;;13.90;;
3052;SDS011;1536;51.098;6.414;2023-06-22T07:20:26;15.20;;;13.37;;
3052;SDS011;1536;51.098;6.414;2023-06-22T07:22:53;15.63;;;13.20;;
3052;SDS011;1536;51.098;6.414;2023-06-22T07:25:20;18.60;;;12.70;;
3052;SDS011;1536;51.098;6.414;2023-06-22T07:27:56;13.60;;;12.30;;
3052;SDS011;1536;51.098;6.414;2023-06-22T07:30:24;14.87;;;13.33;;
3052;SDS011;1536;51.098;6.414;2023-06-22T07:32:52;15.40;;;13.17;;
3052;SDS011;1536;51.098;6.414;2023-06-22T07:35:19;13.10;;;11.80;;
3052;SDS011;1536;51.098;6.414;2023-06-22T07:37:45;15.30;;;12.33;;
3052;SDS011;1536;51.098;6.414;2023-06-22T07:40:12;13.47;;;12.17;;
3052;SDS011;1536;51.098;6.414;2023-06-22T07:42:39;15.77;;;14.07;;
3052;SDS011;1536;51.098;6.414;2023-06-22T07:45:08;14.73;;;12.97;;
3052;SDS011;1536;51.098;6.414;2023-06-22T07:47:36;15.67;;;12.80;;
3052;SDS011;1536;51.098;6.414;2023-06-22T07:50:03;14.00;;;12.60;;
3052;SDS011;1536;51.098;6.414;2023-06-22T07:52:30;17.60;;;12.10;;
3052;SDS011;1536;51.098;6.414;2023-06-22T07:54:57;15.13;;;12.37;;
3052;SDS011;1536;51.098;6.414;2023-06-22T07:57:24;13.27;;;11.87;;
3052;SDS011;1536;51.098;6.414;2023-06-22T07:59:57;12.87;;;11.03;;
3052;SDS011;1536;51.098;6.414;2023-06-22T08:02:25;11.67;;;10.67;;
3052;SDS011;1536;51.098;6.414;2023-06-22T08:04:52;14.37;;;12.30;;
3052;SDS011;1536;51.098;6.414;2023-06-22T08:07:18;12.63;;;11.10;;
3052;SDS011;1536;51.098;6.414;2023-06-22T08:09:46;16.90;;;12.90;;
3052;SDS011;1536;51.098;6.414;2023-06-22T08:12:14;11.70;;;10.57;;
3052;SDS011;1536;51.098;6.414;2023-06-22T08:14:41;12.07;;;10.87;;
3052;SDS011;1536;51.098;6.414;2023-06-22T08:17:08;12.07;;;10.90;;
3052;SDS011;1536;51.098;6.414;2023-06-22T08:19:38;15.40;;;11.07;;
3052;SDS011;1536;51.098;6.414;2023-06-22T08:22:05;13.70;;;10.57;;
3052;SDS011;1536;51.098;6.414;2023-06-22T08:24:32;12.33;;;10.17;;
3052;SDS011;1536;51.098;6.414;2023-06-22T08:26:59;16.50;;;12.50;;
3052;SDS011;1536;51.098;6.414;2023-06-22T08:29:26;14.37;;;12.00;;
3052;SDS011;1536;51.098;6.414;2023-06-22T08:31:53;20.23;;;10.37;;
3052;SDS011;1536;51.098;6.414;2023-06-22T08:34:19;12.03;;;10.43;;
3052;SDS011;1536;51.098;6.414;2023-06-22T08:36:54;13.73;;;11.33;;
3052;SDS011;1536;51.098;6.414;2023-06-22T08:39:21;11.60;;;10.50;;
3052;SDS011;1536;51.098;6.414;2023-06-22T08:41:47;11.60;;;10.40;;
3052;SDS011;1536;51.098;6.414;2023-06-22T08:44:16;13.60;;;10.70;;
3052;SDS011;1536;51.098;6.414;2023-06-22T08:46:44;10.87;;;9.77;;
3052;SDS011;1536;51.098;6.414;2023-06-22T08:49:11;12.80;;;11.50;;
3052;SDS011;1536;51.098;6.414;2023-06-22T08:51:38;13.90;;;11.13;;
3052;SDS011;1536;51.098;6.414;2023-06-22T08:54:06;14.13;;;10.77;;
3052;SDS011;1536;51.098;6.414;2023-06-22T08:56:33;14.07;;;10.07;;
3052;SDS011;1536;51.098;6.414;2023-06-22T08:58:59;11.70;;;10.50;;
3052;SDS011;1536;51.098;6.414;2023-06-22T09:01:27;11.37;;;10.17;;
3052;SDS011;1536;51.098;6.414;2023-06-22T09:03:53;10.60;;;9.50;;
3052;SDS011;1536;51.098;6.414;2023-06-22T09:06:22;10.23;;;9.23;;
3052;SDS011;1536;51.098;6.414;2023-06-22T09:08:49;9.63;;;8.60;;
3052;SDS011;1536;51.098;6.414;2023-06-22T09:11:17;9.57;;;8.67;;
3052;SDS011;1536;51.098;6.414;2023-06-22T09:13:44;9.57;;;7.40;;
3052;SDS011;1536;51.098;6.414;2023-06-22T09:16:11;11.10;;;7.93;;
3052;SDS011;1536;51.098;6.414;2023-06-22T09:18:38;8.57;;;7.70;;
3052;SDS011;1536;51.098;6.414;2023-06-22T09:21:05;8.67;;;7.80;;
3052;SDS011;1536;51.098;6.414;2023-06-22T09:23:32;9.33;;;8.33;;
3052;SDS011;1536;51.098;6.414;2023-06-22T09:25:58;9.80;;;8.27;;
3052;SDS011;1536;51.098;6.414;2023-06-22T09:28:27;9.60;;;8.67;;
3052;SDS011;1536;51.098;6.414;2023-06-22T09:30:53;9.30;;;8.40;;
3052;SDS011;1536;51.098;6.414;2023-06-22T09:33:24;7.90;;;7.20;;
3052;SDS011;1536;51.098;6.414;2023-06-22T09:35:51;14.93;;;7.27;;
3052;SDS011;1536;51.098;6.414;2023-06-22T09:38:18;6.87;;;6.17;;
3052;SDS011;1536;51.098;6.414;2023-06-22T09:40:44;8.03;;;7.23;;
3052;SDS011;1536;51.098;6.414;2023-06-22T09:43:11;7.50;;;6.67;;
3052;SDS011;1536;51.098;6.414;2023-06-22T09:45:39;7.30;;;6.60;;
3052;SDS011;1536;51.098;6.414;2023-06-22T09:48:06;7.37;;;6.57;;
3052;SDS011;1536;51.098;6.414;2023-06-22T09:50:34;6.80;;;6.20;;
3052;SDS011;1536;51.098;6.414;2023-06-22T09:53:01;7.20;;;6.50;;
3052;SDS011;1536;51.098;6.414;2023-06-22T09:55:28;7.87;;;6.87;;
3052;SDS011;1536;51.098;6.414;2023-06-22T09:57:55;8.27;;;7.47;;
3052;SDS011;1536;51.098;6.414;2023-06-22T10:00:21;7.23;;;6.00;;
3052;SDS011;1536;51.098;6.414;2023-06-22T10:02:52;7.77;;;6.97;;
3052;SDS011;1536;51.098;6.414;2023-06-22T10:05:20;7.60;;;6.90;;
3052;SDS011;1536;51.098;6.414;2023-06-22T10:07:47;6.40;;;5.80;;
3052;SDS011;1536;51.098;6.414;2023-06-22T10:10:14;7.30;;;6.57;;
3052;SDS011;1536;51.098;6.414;2023-06-22T10:12:41;8.73;;;6.90;;
3052;SDS011;1536;51.098;6.414;2023-06-22T10:15:10;8.30;;;6.90;;
3052;SDS011;1536;51.098;6.414;2023-06-22T10:17:37;7.20;;;6.50;;
3052;SDS011;1536;51.098;6.414;2023-06-22T10:20:06;8.10;;;7.27;;
3052;SDS011;1536;51.098;6.414;2023-06-22T10:22:38;10.07;;;7.70;;
3052;SDS011;1536;51.098;6.414;2023-06-22T10:25:05;8.23;;;7.47;;
3052;SDS011;1536;51.098;6.414;2023-06-22T10:27:33;8.77;;;6.73;;
3052;SDS011;1536;51.098;6.414;2023-06-22T10:30:00;12.43;;;7.27;;
3052;SDS011;1536;51.098;6.414;2023-06-22T10:32:27;7.27;;;6.67;;
3052;SDS011;1536;51.098;6.414;2023-06-22T10:34:54;7.43;;;6.73;;
3052;SDS011;1536;51.098;6.414;2023-06-22T10:37:22;8.20;;;7.20;;
3052;SDS011;1536;51.098;6.414;2023-06-22T10:39:49;9.70;;;8.00;;
3052;SDS011;1536;51.098;6.414;2023-06-22T10:42:16;7.90;;;7.20;;
3052;SDS011;1536;51.098;6.414;2023-06-22T10:44:43;8.70;;;7.90;;
3052;SDS011;1536;51.098;6.414;2023-06-22T10:47:09;8.67;;;7.80;;
3052;SDS011;1536;51.098;6.414;2023-06-22T10:49:37;10.93;;;8.53;;
3052;SDS011;1536;51.098;6.414;2023-06-22T10:52:04;9.43;;;8.50;;
3052;SDS011;1536;51.098;6.414;2023-06-22T10:54:33;9.43;;;8.50;;
3052;SDS011;1536;51.098;6.414;2023-06-22T10:57:01;9.30;;;8.20;;
3052;SDS011;1536;51.098;6.414;2023-06-22T10:59:29;11.10;;;9.53;;
3052;SDS011;1536;51.098;6.414;2023-06-22T11:01:56;12.13;;;8.53;;
3052;SDS011;1536;51.098;6.414;2023-06-22T11:04:23;12.50;;;8.57;;
3052;SDS011;1536;51.098;6.414;2023-06-22T11:06:50;12.67;;;8.80;;
3052;SDS011;1536;51.098;6.414;2023-06-22T11:09:17;10.10;;;7.83;;
3052;SDS011;1536;51.098;6.414;2023-06-22T11:11:47;12.33;;;8.90;;
3052;SDS011;1536;51.098;6.414;2023-06-22T11:14:15;12.10;;;9.17;;
3052;SDS011;1536;51.098;6.414;2023-06-22T11:16:44;11.97;;;8.73;;
3052;SDS011;1536;51.098;6.414;2023-06-22T11:19:11;12.30;;;9.33;;
3052;SDS011;1536;51.098;6.414;2023-06-22T11:21:38;11.77;;;10.10;;
3052;SDS011;1536;51.098;6.414;2023-06-22T11:24:05;16.53;;;10.30;;
3052;SDS011;1536;51.098;6.414;2023-06-22T11:26:32;13.80;;;11.10;;
3052;SDS011;1536;51.098;6.414;2023-06-22T11:29:01;12.30;;;10.03;;
3052;SDS011;1536;51.098;6.414;2023-06-22T11:31:30;11.80;;;9.90;;
3052;SDS011;1536;51.098;6.414;2023-06-22T11:33:57;17.30;;;11.30;;
3052;SDS011;1536;51.098;6.414;2023-06-22T11:36:23;14.70;;;11.23;;
3052;SDS011;1536;51.098;6.414;2023-06-22T11:38:51;15.67;;;11.67;;
3052;SDS011;1536;51.098;6.414;2023-06-22T11:41:17;18.97;;;13.10;;
3052;SDS011;1536;51.098;6.414;2023-06-22T11:43:44;15.77;;;14.00;;
3052;SDS011;1536;51.098;6.414;2023-06-22T11:46:12;15.20;;;13.60;;
3052;SDS011;1536;51.098;6.414;2023-06-22T11:48:39;15.93;;;13.87;;
3052;SDS011;1536;51.098;6.414;2023-06-22T11:51:06;16.63;;;14.97;;
3052;SDS011;1536;51.098;6.414;2023-06-22T11:53:33;17.67;;;15.73;;
3052;SDS011;1536;51.098;6.414;2023-06-22T11:56:00;17.03;;;14.70;;
3052;SDS011;1536;51.098;6.414;2023-06-22T11:58:27;15.13;;;13.63;;
3052;SDS011;1536;51.098;6.414;2023-06-22T12:00:54;17.97;;;15.50;;
3052;SDS011;1536;51.098;6.414;2023-06-22T12:03:22;16.10;;;14.60;;
3052;SDS011;1536;51.098;6.414;2023-06-22T12:05:49;18.17;;;16.30;;
3052;SDS011;1536;51.098;6.414;2023-06-22T12:08:16;20.30;;;16.83;;
3052;SDS011;1536;51.098;6.414;2023-06-22T12:10:43;21.27;;;19.20;;
3052;SDS011;1536;51.098;6.414;2023-06-22T12:13:10;23.43;;;20.00;;
3052;SDS011;1536;51.098;6.414;2023-06-22T12:15:37;21.13;;;18.93;;
3052;SDS011;1536;51.098;6.414;2023-06-22T12:18:03;21.87;;;19.70;;
3052;SDS011;1536;51.098;6.414;2023-06-22T12:20:32;24.03;;;20.10;;
3052;SDS011;1536;51.098;6.414;2023-06-22T12:22:58;21.73;;;19.50;;
3052;SDS011;1536;51.098;6.414;2023-06-22T12:25:25;22.57;;;20.30;;
3052;SDS011;1536;51.098;6.414;2023-06-22T12:27:52;23.97;;;21.47;;
3052;SDS011;1536;51.098;6.414;2023-06-22T12:30:18;21.63;;;19.37;;
3052;SDS011;1536;51.098;6.414;2023-06-22T12:32:48;21.57;;;19.27;;
3052;SDS011;1536;51.098;6.414;2023-06-22T12:35:16;22.27;;;19.60;;
3052;SDS011;1536;51.098;6.414;2023-06-22T12:37:44;21.83;;;19.67;;
3052;SDS011;1536;51.098;6.414;2023-06-22T12:40:11;20.97;;;18.97;;
3052;SDS011;1536;51.098;6.414;2023-06-22T12:42:38;21.23;;;18.33;;
3052;SDS011;1536;51.098;6.414;2023-06-22T12:45:05;21.53;;;19.27;;
3052;SDS011;1536;51.098;6.414;2023-06-22T12:47:34;21.80;;;19.13;;
3052;SDS011;1536;51.098;6.414;2023-06-22T12:50:00;23.97;;;20.30;;
3052;SDS011;1536;51.098;6.414;2023-06-22T12:52:29;21.10;;;18.93;;
3052;SDS011;1536;51.098;6.414;2023-06-22T12:54:57;20.83;;;18.73;;
3052;SDS011;1536;51.098;6.414;2023-06-22T12:57:24;20.07;;;18.13;;
3052;SDS011;1536;51.098;6.414;2023-06-22T12:59:51;19.47;;;17.47;;
3052;SDS011;1536;51.098;6.414;2023-06-22T13:02:18;19.83;;;16.70;;
3052;SDS011;1536;51.098;6.414;2023-06-22T13:04:45;19.27;;;17.33;;
3052;SDS011;1536;51.098;6.414;2023-06-22T13:07:11;21.10;;;19.00;;
3052;SDS011;1536;51.098;6.414;2023-06-22T13:09:38;22.43;;;19.80;;
3052;SDS011;1536;51.098;6.414;2023-06-22T13:12:07;22.53;;;20.23;;
3052;SDS011;1536;51.098;6.414;2023-06-22T13:14:34;21.33;;;19.07;;
3052;SDS011;1536;51.098;6.414;2023-06-22T13:17:01;22.37;;;20.17;;
3052;SDS011;1536;51.098;6.414;2023-06-22T13:19:28;22.93;;;20.57;;
3052;SDS011;1536;51.098;6.414;2023-06-22T13:21:57;24.87;;;20.57;;
3052;SDS011;1536;51.098;6.414;2023-06-22T13:24:24;21.77;;;19.53;;
3052;SDS011;1536;51.098;6.414;2023-06-22T13:26:51;24.10;;;21.63;;
3052;SDS011;1536;51.098;6.414;2023-06-22T13:29:19;22.90;;;20.60;;
3052;SDS011;1536;51.098;6.414;2023-06-22T13:31:45;24.37;;;22.00;;
3052;SDS011;1536;51.098;6.414;2023-06-22T13:34:12;26.43;;;23.03;;
3052;SDS011;1536;51.098;6.414;2023-06-22T13:36:39;23.37;;;20.87;;
3052;SDS011;1536;51.098;6.414;2023-06-22T13:39:05;24.70;;;22.03;;
3052;SDS011;1536;51.098;6.414;2023-06-22T13:41:32;25.10;;;22.40;;
3052;SDS011;1536;51.098;6.414;2023-06-22T13:43:59;26.57;;;23.77;;
3052;SDS011;1536;51.098;6.414;2023-06-22T13:46:27;32.97;;;24.93;;
3052;SDS011;1536;51.098;6.414;2023-06-22T13:48:54;28.17;;;23.60;;
3052;SDS011;1536;51.098;6.414;2023-06-22T13:51:21;27.83;;;24.83;;
3052;SDS011;1536;51.098;6.414;2023-06-22T13:53:48;26.93;;;24.10;;
3052;SDS011;1536;51.098;6.414;2023-06-22T13:56:14;28.20;;;25.00;;
3052;SDS011;1536;51.098;6.414;2023-06-22T13:58:41;27.50;;;24.60;;
3052;SDS011;1536;51.098;6.414;2023-06-22T14:01:08;28.90;;;25.33;;
3052;SDS011;1536;51.098;6.414;2023-06-22T14:03:36;30.37;;;27.17;;
3052;SDS011;1536;51.098;6.414;2023-06-22T14:06:03;28.47;;;25.40;;
3052;SDS011;1536;51.098;6.414;2023-06-22T14:08:30;30.40;;;27.30;;
3052;SDS011;1536;51.098;6.414;2023-06-22T14:10:57;28.30;;;25.50;;
3052;SDS011;1536;51.098;6.414;2023-06-22T14:13:23;30.07;;;26.77;;
3052;SDS011;1536;51.098;6.414;2023-06-22T14:15:50;32.23;;;27.13;;
3052;SDS011;1536;51.098;6.414;2023-06-22T14:18:19;31.40;;;28.13;;
3052;SDS011;1536;51.098;6.414;2023-06-22T14:20:48;30.57;;;27.40;;
3052;SDS011;1536;51.098;6.414;2023-06-22T14:23:15;27.70;;;24.97;;
3052;SDS011;1536;51.098;6.414;2023-06-22T14:25:42;28.87;;;25.97;;
3052;SDS011;1536;51.098;6.414;2023-06-22T14:28:08;30.67;;;27.47;;
3052;SDS011;1536;51.098;6.414;2023-06-22T14:30:35;31.13;;;26.60;;
3052;SDS011;1536;51.098;6.414;2023-06-22T14:33:02;33.00;;;27.10;;
3052;SDS011;1536;51.098;6.414;2023-06-22T14:35:28;30.63;;;27.33;;
3052;SDS011;1536;51.098;6.414;2023-06-22T14:37:56;29.97;;;27.00;;
3052;SDS011;1536;51.098;6.414;2023-06-22T14:40:23;30.03;;;26.80;;
3052;SDS011;1536;51.098;6.414;2023-06-22T14:42:50;32.47;;;28.60;;
3052;SDS011;1536;51.098;6.414;2023-06-22T14:45:17;31.77;;;28.37;;
3052;SDS011;1536;51.098;6.414;2023-06-22T14:47:43;32.00;;;28.67;;
3052;SDS011;1536;51.098;6.414;2023-06-22T14:50:10;31.13;;;28.13;;
3052;SDS011;1536;51.098;6.414;2023-06-22T14:52:37;30.20;;;26.53;;
3052;SDS011;1536;51.098;6.414;2023-06-22T14:55:05;27.83;;;25.03;;
3052;SDS011;1536;51.098;6.414;2023-06-22T14:57:33;30.03;;;26.63;;